Time;durP1;ratioP1;P1;durP2;ratioP2;P2;SDS_P1;SDS_P2;PMS_P1;PMS_P2;Temp;Humidity;BMP_temperature;BMP_pressure;BME280_temperature;BME280_humidity;BME280_pressure;Samples;Min_cycle;Max_cycle;Signal;HPM_P1;HPM_P2
2021/07/16 00:00:24;;;;;;;;;;;19.40;78.50;;;;;;5110174;28;20010;-62
2021/07/16 00:02:51;;;;;;;;;;;19.40;78.40;;;;;;5094271;28;19971;-62
2021/07/16 00:05:18;;;;;;;;;;;19.40;78.40;;;;;;5107350;28;19924;-62
2021/07/16 00:07:44;;;;;;;;;;;19.30;78.50;;;;;;5109724;28;19931;-62
2021/07/16 00:10:12;;;;;;;;;;;19.30;78.70;;;;;;5109825;28;20011;-62
2021/07/16 00:12:39;;;;;;;;;;;19.20;79.10;;;;;;5107802;28;19943;-62
2021/07/16 00:15:06;;;;;;;;;;;19.10;79.30;;;;;;5104021;28;20360;-61
2021/07/16 00:17:32;;;;;;;;;;;19.00;79.50;;;;;;5104482;28;19932;-62
2021/07/16 00:19:59;;;;;;;;;;;19.00;79.80;;;;;;5107966;28;19979;-61
2021/07/16 00:22:26;;;;;;;;;;;18.90;80.00;;;;;;5109895;28;19989;-61
2021/07/16 00:24:52;;;;;;;;;;;18.90;80.10;;;;;;5101074;28;20003;-61
2021/07/16 00:27:18;;;;;;;;;;;18.90;80.30;;;;;;5120054;28;20020;-62
2021/07/16 00:29:45;;;;;;;;;;;18.90;80.30;;;;;;5130362;28;20064;-61
2021/07/16 00:32:11;;;;;;;;;;;18.90;80.20;;;;;;5130006;27;19930;-62
2021/07/16 00:34:37;;;;;;;;;;;18.90;80.10;;;;;;5129816;28;20298;-62
2021/07/16 00:37:06;;;;;;;;;;;19.00;80.10;;;;;;5125938;28;19924;-60
2021/07/16 00:39:34;;;;;;;;;;;19.00;80.00;;;;;;5107333;28;20022;-62
2021/07/16 00:42:00;;;;;;;;;;;18.90;80.00;;;;;;5107557;28;20462;-62
2021/07/16 00:44:26;;;;;;;;;;;18.90;80.10;;;;;;5116237;28;20026;-63
2021/07/16 00:46:52;;;;;;;;;;;18.90;80.10;;;;;;5103885;28;20129;-62
2021/07/16 00:49:19;;;;;;;;;;;18.90;80.20;;;;;;5109380;28;19928;-62
2021/07/16 00:51:45;;;;;;;;;;;18.90;80.20;;;;;;5110448;28;20291;-62
2021/07/16 00:54:12;;;;;;;;;;;18.90;80.20;;;;;;5115853;28;20011;-62
2021/07/16 00:56:41;;;;;;;;;;;18.90;80.20;;;;;;5115900;28;19927;-62
2021/07/16 00:59:07;;;;;;;;;;;18.90;80.20;;;;;;5115639;28;20002;-62
2021/07/16 01:01:33;;;;;;;;;;;18.90;80.20;;;;;;5115953;28;20038;-61
2021/07/16 01:04:00;;;;;;;;;;;18.90;80.20;;;;;;5115639;28;19958;-61
2021/07/16 01:06:28;;;;;;;;;;;19.00;80.20;;;;;;5109043;28;19924;-61
2021/07/16 01:08:55;;;;;;;;;;;19.00;80.10;;;;;;5109721;28;19928;-61
2021/07/16 01:11:22;;;;;;;;;;;19.00;80.50;;;;;;5115471;28;19923;-61
2021/07/16 01:13:49;;;;;;;;;;;19.00;80.40;;;;;;5115484;28;19928;-62
2021/07/16 01:16:15;;;;;;;;;;;19.00;80.50;;;;;;5104597;28;19927;-62
2021/07/16 01:18:41;;;;;;;;;;;19.00;80.50;;;;;;5115760;28;19930;-62
2021/07/16 01:21:07;;;;;;;;;;;19.00;81.40;;;;;;5113480;28;19931;-62
2021/07/16 01:23:34;;;;;;;;;;;19.00;80.60;;;;;;5096446;28;20003;-61
2021/07/16 01:26:00;;;;;;;;;;;19.00;80.80;;;;;;5094095;28;19950;-62
2021/07/16 01:28:26;;;;;;;;;;;19.00;80.80;;;;;;5094521;28;19924;-62
2021/07/16 01:30:53;;;;;;;;;;;19.00;80.90;;;;;;5094891;28;19935;-64
2021/07/16 01:33:21;;;;;;;;;;;19.00;80.80;;;;;;5094682;28;19924;-62
2021/07/16 01:35:48;;;;;;;;;;;19.00;80.90;;;;;;5092419;28;19931;-61
2021/07/16 01:38:14;;;;;;;;;;;19.00;80.90;;;;;;5092914;28;19974;-61
2021/07/16 01:40:40;;;;;;;;;;;19.10;80.90;;;;;;5094112;28;19958;-62
2021/07/16 01:43:08;;;;;;;;;;;19.00;80.90;;;;;;5075624;28;20007;-61
2021/07/16 01:45:38;;;;;;;;;;;19.10;81.00;;;;;;5091866;28;19932;-62
2021/07/16 01:48:09;;;;;;;;;;;19.10;80.90;;;;;;5093665;28;19928;-62
2021/07/16 01:50:35;;;;;;;;;;;19.10;80.70;;;;;;5093000;28;19931;-62
2021/07/16 01:53:03;;;;;;;;;;;19.20;80.60;;;;;;5094407;28;19924;-61
2021/07/16 01:55:30;;;;;;;;;;;19.30;80.50;;;;;;5093815;28;20022;-62
2021/07/16 01:57:57;;;;;;;;;;;19.30;80.30;;;;;;5093583;28;20014;-62
2021/07/16 02:00:35;;;;;;;;;;;19.30;80.20;;;;;;5094035;28;19924;-62
2021/07/16 02:03:05;;;;;;;;;;;19.30;80.20;;;;;;5093269;28;19925;-62
2021/07/16 02:05:37;;;;;;;;;;;19.30;80.40;;;;;;5114335;28;19931;-62
2021/07/16 02:08:05;;;;;;;;;;;19.30;80.50;;;;;;5125297;27;20506;-61
2021/07/16 02:10:31;;;;;;;;;;;19.30;80.70;;;;;;5112923;28;20317;-61
2021/07/16 02:12:58;;;;;;;;;;;19.30;80.60;;;;;;5113542;28;19989;-61
2021/07/16 02:15:26;;;;;;;;;;;19.30;80.50;;;;;;5105504;28;19979;-62
2021/07/16 02:17:53;;;;;;;;;;;19.30;80.60;;;;;;5110464;28;19968;-62
2021/07/16 02:20:19;;;;;;;;;;;19.30;80.50;;;;;;5114332;28;19959;-62
2021/07/16 02:22:45;;;;;;;;;;;19.30;80.40;;;;;;5113523;28;20282;-62
2021/07/16 02:25:12;;;;;;;;;;;19.30;80.40;;;;;;5114151;28;20299;-62
2021/07/16 02:27:39;;;;;;;;;;;19.40;80.30;;;;;;5113726;28;19963;-62
2021/07/16 02:30:06;;;;;;;;;;;19.40;80.00;;;;;;5113428;28;20104;-62
2021/07/16 02:32:33;;;;;;;;;;;19.40;79.90;;;;;;5078798;28;20496;-62
2021/07/16 02:34:59;;;;;;;;;;;19.40;79.90;;;;;;5113506;28;20319;-61
2021/07/16 02:37:25;;;;;;;;;;;19.40;80.00;;;;;;5113558;28;20415;-61
2021/07/16 02:39:51;;;;;;;;;;;19.40;79.90;;;;;;5113091;28;19931;-61
2021/07/16 02:42:17;;;;;;;;;;;19.40;79.90;;;;;;5113351;28;19980;-60
2021/07/16 02:44:44;;;;;;;;;;;19.40;79.80;;;;;;5113430;28;20019;-61
2021/07/16 02:47:11;;;;;;;;;;;19.40;79.80;;;;;;5113414;28;19931;-62
2021/07/16 02:49:37;;;;;;;;;;;19.40;79.80;;;;;;5113591;28;19927;-62
2021/07/16 02:52:03;;;;;;;;;;;19.30;79.80;;;;;;5113287;28;20024;-62
2021/07/16 02:54:29;;;;;;;;;;;19.30;80.70;;;;;;5113329;28;20318;-62
2021/07/16 02:56:55;;;;;;;;;;;19.30;79.70;;;;;;5113301;28;20025;-62
2021/07/16 02:59:21;;;;;;;;;;;19.30;79.70;;;;;;5113442;28;20004;-61
2021/07/16 03:01:54;;;;;;;;;;;19.30;79.70;;;;;;5113270;28;19959;-61
2021/07/16 03:04:21;;;;;;;;;;;19.30;79.50;;;;;;5094528;28;20018;-61
2021/07/16 03:06:47;;;;;;;;;;;19.20;79.50;;;;;;5112552;28;20283;-61
2021/07/16 03:09:13;;;;;;;;;;;19.20;79.50;;;;;;5113416;28;19949;-62
2021/07/16 03:11:39;;;;;;;;;;;19.20;79.50;;;;;;5113296;28;19935;-62
2021/07/16 03:14:05;;;;;;;;;;;19.20;79.50;;;;;;5112618;28;19924;-62
2021/07/16 03:16:32;;;;;;;;;;;19.10;79.60;;;;;;5112779;28;19967;-62
2021/07/16 03:18:58;;;;;;;;;;;19.10;79.70;;;;;;5113548;28;20056;-62
2021/07/16 03:21:24;;;;;;;;;;;19.10;79.70;;;;;;5112865;28;19935;-62
2021/07/16 03:23:51;;;;;;;;;;;19.00;79.80;;;;;;5113252;28;20390;-62
2021/07/16 03:26:17;;;;;;;;;;;19.00;79.90;;;;;;5112631;28;19924;-63
2021/07/16 03:28:43;;;;;;;;;;;18.90;80.00;;;;;;5113013;28;19923;-62
2021/07/16 03:31:09;;;;;;;;;;;18.90;80.10;;;;;;5113171;28;20015;-62
2021/07/16 03:33:35;;;;;;;;;;;18.90;80.40;;;;;;5094442;28;20393;-62
2021/07/16 03:36:02;;;;;;;;;;;18.80;81.20;;;;;;5112912;28;20053;-62
2021/07/16 03:38:28;;;;;;;;;;;18.80;80.50;;;;;;5112691;28;19931;-62
2021/07/16 03:40:56;;;;;;;;;;;18.80;80.70;;;;;;5111755;28;20509;-62
2021/07/16 03:43:23;;;;;;;;;;;18.70;80.60;;;;;;5107657;28;19927;-62
2021/07/16 03:45:50;;;;;;;;;;;18.70;80.50;;;;;;5113099;28;19923;-60
2021/07/16 03:48:16;;;;;;;;;;;18.60;80.70;;;;;;5112916;28;19958;-59
2021/07/16 03:50:42;;;;;;;;;;;18.60;81.00;;;;;;5112451;28;20002;-59
2021/07/16 03:53:09;;;;;;;;;;;18.60;81.10;;;;;;5112599;28;19973;-60
2021/07/16 03:55:35;;;;;;;;;;;18.50;81.00;;;;;;5113078;28;19955;-60
2021/07/16 03:58:01;;;;;;;;;;;18.50;81.30;;;;;;5112870;28;19923;-60
2021/07/16 04:00:29;;;;;;;;;;;18.50;81.40;;;;;;5112809;28;19924;-60
2021/07/16 04:02:59;;;;;;;;;;;18.40;81.80;;;;;;5112636;28;19924;-59
2021/07/16 04:05:26;;;;;;;;;;;18.40;82.00;;;;;;5112622;28;19924;-60
2021/07/16 04:07:54;;;;;;;;;;;18.30;82.10;;;;;;5112370;28;19924;-59
2021/07/16 04:10:21;;;;;;;;;;;18.30;82.20;;;;;;5112183;28;20003;-60
2021/07/16 04:12:55;;;;;;;;;;;18.30;82.20;;;;;;5111819;28;19924;-59
2021/07/16 04:15:22;;;;;;;;;;;18.30;82.00;;;;;;5116412;28;20049;-60
2021/07/16 04:17:48;;;;;;;;;;;18.30;81.90;;;;;;5098186;28;19955;-61
2021/07/16 04:20:14;;;;;;;;;;;18.30;81.90;;;;;;5116241;28;19975;-61
2021/07/16 04:22:41;;;;;;;;;;;18.30;81.90;;;;;;5116695;28;19931;-61
2021/07/16 04:25:08;;;;;;;;;;;18.30;81.60;;;;;;5116503;28;19923;-61
2021/07/16 04:27:34;;;;;;;;;;;18.30;81.50;;;;;;5116023;28;19947;-61
2021/07/16 04:30:00;;;;;;;;;;;18.30;81.30;;;;;;5116055;28;20434;-60
2021/07/16 04:32:26;;;;;;;;;;;18.30;81.50;;;;;;5115970;28;20118;-61
2021/07/16 04:34:52;;;;;;;;;;;18.20;81.30;;;;;;5116032;28;20014;-61
2021/07/16 04:37:18;;;;;;;;;;;18.20;81.20;;;;;;5116001;28;20016;-61
2021/07/16 04:39:44;;;;;;;;;;;18.20;81.20;;;;;;5116354;28;19927;-61
2021/07/16 04:42:11;;;;;;;;;;;18.20;81.30;;;;;;5115669;28;19986;-62
2021/07/16 04:44:37;;;;;;;;;;;18.20;81.30;;;;;;5115800;28;20008;-61
2021/07/16 04:47:03;;;;;;;;;;;18.20;81.30;;;;;;5097260;28;20012;-61
2021/07/16 04:49:29;;;;;;;;;;;18.20;81.20;;;;;;5115386;28;19990;-61
2021/07/16 04:51:57;;;;;;;;;;;18.20;81.00;;;;;;5115782;28;19930;-61
2021/07/16 04:54:23;;;;;;;;;;;18.20;81.90;;;;;;5115976;28;20369;-61
2021/07/16 04:56:50;;;;;;;;;;;18.20;81.00;;;;;;5115746;28;20410;-61
2021/07/16 04:59:16;;;;;;;;;;;18.20;81.10;;;;;;5115621;28;20023;-61
2021/07/16 05:01:42;;;;;;;;;;;18.10;81.50;;;;;;5115564;28;19967;-61
2021/07/16 05:04:08;;;;;;;;;;;18.00;81.80;;;;;;5115190;28;19923;-61
2021/07/16 05:06:34;;;;;;;;;;;18.00;82.00;;;;;;5114765;28;19947;-61
2021/07/16 05:09:01;;;;;;;;;;;18.00;82.10;;;;;;5115529;28;19923;-61
2021/07/16 05:11:27;;;;;;;;;;;18.00;82.00;;;;;;5114930;27;20361;-61
2021/07/16 05:13:53;;;;;;;;;;;18.00;82.10;;;;;;5115347;28;19980;-61
2021/07/16 05:16:19;;;;;;;;;;;18.00;82.30;;;;;;5115102;28;19924;-62
2021/07/16 05:18:45;;;;;;;;;;;17.90;82.50;;;;;;5115123;28;20385;-61
2021/07/16 05:21:12;;;;;;;;;;;17.90;82.80;;;;;;5115534;27;19927;-64
2021/07/16 05:23:38;;;;;;;;;;;17.90;82.80;;;;;;5114904;28;20022;-61
2021/07/16 05:26:04;;;;;;;;;;;17.90;83.10;;;;;;5122309;27;20072;-62
2021/07/16 05:28:31;;;;;;;;;;;17.80;83.00;;;;;;5116221;27;20445;-61
2021/07/16 05:30:57;;;;;;;;;;;17.80;83.20;;;;;;5117986;27;19989;-62
2021/07/16 05:33:23;;;;;;;;;;;17.90;83.20;;;;;;5129612;27;19978;-61
2021/07/16 05:35:50;;;;;;;;;;;17.90;83.00;;;;;;5133335;27;19947;-61
2021/07/16 05:38:17;;;;;;;;;;;18.00;83.10;;;;;;5130062;27;19939;-61
2021/07/16 05:40:43;;;;;;;;;;;18.00;83.50;;;;;;5130189;27;19924;-61
2021/07/16 05:43:10;;;;;;;;;;;18.10;82.80;;;;;;5120124;27;20370;-61
2021/07/16 05:45:37;;;;;;;;;;;18.20;82.70;;;;;;5099798;27;20390;-60
2021/07/16 05:48:04;;;;;;;;;;;18.30;82.50;;;;;;5119238;27;19924;-61
2021/07/16 05:50:30;;;;;;;;;;;18.40;82.40;;;;;;5119364;27;19934;-61
2021/07/16 05:52:56;;;;;;;;;;;18.50;82.20;;;;;;5120839;27;19923;-61
2021/07/16 05:55:22;;;;;;;;;;;18.50;81.90;;;;;;5113439;28;20032;-61
2021/07/16 05:57:49;;;;;;;;;;;18.60;81.70;;;;;;5111946;28;20052;-61
2021/07/16 06:00:16;;;;;;;;;;;18.70;81.70;;;;;;5112835;28;19978;-62
2021/07/16 06:02:42;;;;;;;;;;;18.70;81.30;;;;;;5113051;27;20414;-61
2021/07/16 06:05:08;;;;;;;;;;;18.80;81.30;;;;;;5121442;27;19924;-61
2021/07/16 06:07:34;;;;;;;;;;;18.90;81.10;;;;;;5117933;27;20040;-62
2021/07/16 06:10:01;;;;;;;;;;;18.90;81.00;;;;;;5118574;27;20056;-61
2021/07/16 06:12:27;;;;;;;;;;;19.00;80.90;;;;;;5116121;27;19924;-61
2021/07/16 06:14:56;;;;;;;;;;;19.00;80.70;;;;;;5112907;27;19924;-60
2021/07/16 06:17:22;;;;;;;;;;;19.00;80.80;;;;;;5117595;27;19927;-61
2021/07/16 06:19:48;;;;;;;;;;;19.10;80.60;;;;;;5122503;27;19924;-61
2021/07/16 06:22:15;;;;;;;;;;;19.10;80.60;;;;;;5117676;27;20298;-60
2021/07/16 06:24:41;;;;;;;;;;;19.20;80.40;;;;;;5102278;27;19927;-61
2021/07/16 06:27:07;;;;;;;;;;;19.30;80.10;;;;;;5109832;27;19932;-61
2021/07/16 06:29:34;;;;;;;;;;;19.40;80.00;;;;;;5110040;27;19923;-61
2021/07/16 06:32:00;;;;;;;;;;;19.50;79.70;;;;;;5109579;28;19971;-61
2021/07/16 06:34:26;;;;;;;;;;;19.50;79.50;;;;;;5117025;27;20018;-64
2021/07/16 06:36:52;;;;;;;;;;;19.60;79.20;;;;;;5116873;27;19966;-64
2021/07/16 06:39:18;;;;;;;;;;;19.70;78.90;;;;;;5117829;27;19927;-63
2021/07/16 06:41:44;;;;;;;;;;;19.80;78.60;;;;;;5092495;28;20399;-64
2021/07/16 06:44:11;;;;;;;;;;;19.80;78.30;;;;;;5111408;27;19971;-64
2021/07/16 06:46:37;;;;;;;;;;;19.90;78.00;;;;;;5114415;27;19928;-64
2021/07/16 06:49:03;;;;;;;;;;;20.00;77.90;;;;;;5110552;27;19972;-65
2021/07/16 06:51:30;;;;;;;;;;;20.00;77.30;;;;;;5111392;27;20478;-65
2021/07/16 06:53:57;;;;;;;;;;;20.10;76.80;;;;;;5109588;27;19974;-64
2021/07/16 06:56:23;;;;;;;;;;;20.10;76.70;;;;;;5089920;28;19972;-64
2021/07/16 06:58:52;;;;;;;;;;;20.20;76.50;;;;;;5107023;28;19927;-64
2021/07/16 07:01:18;;;;;;;;;;;20.30;76.70;;;;;;5111552;27;20437;-64
2021/07/16 07:03:44;;;;;;;;;;;20.40;75.90;;;;;;5107973;27;20293;-64
2021/07/16 07:06:11;;;;;;;;;;;20.50;75.60;;;;;;5108630;28;19986;-64
2021/07/16 07:08:37;;;;;;;;;;;20.60;75.00;;;;;;5108476;28;20075;-64
2021/07/16 07:11:04;;;;;;;;;;;20.70;74.50;;;;;;5110909;27;19927;-64
2021/07/16 07:13:30;;;;;;;;;;;20.80;74.30;;;;;;5113862;28;20014;-64
2021/07/16 07:15:56;;;;;;;;;;;20.80;73.60;;;;;;5113050;27;20476;-64
2021/07/16 07:18:22;;;;;;;;;;;20.90;73.10;;;;;;5116474;27;20367;-64
2021/07/16 07:20:48;;;;;;;;;;;21.00;72.80;;;;;;5107492;28;20003;-64
2021/07/16 07:23:14;;;;;;;;;;;21.10;72.00;;;;;;5108494;28;19928;-66
2021/07/16 07:25:41;;;;;;;;;;;21.20;72.20;;;;;;5108620;28;19932;-66
2021/07/16 07:28:07;;;;;;;;;;;21.30;71.90;;;;;;5108506;28;19928;-66
2021/07/16 07:30:33;;;;;;;;;;;21.50;71.00;;;;;;5106710;28;20723;-66
2021/07/16 07:32:59;;;;;;;;;;;21.60;70.10;;;;;;5108600;28;19972;-66
2021/07/16 07:35:25;;;;;;;;;;;21.70;69.60;;;;;;5108216;28;19979;-67
2021/07/16 07:37:51;;;;;;;;;;;21.80;69.10;;;;;;5107773;28;20446;-66
2021/07/16 07:40:18;;;;;;;;;;;21.90;68.30;;;;;;5111809;28;19928;-66
2021/07/16 07:42:44;;;;;;;;;;;22.00;67.60;;;;;;5107700;28;19932;-66
2021/07/16 07:45:11;;;;;;;;;;;22.10;67.80;;;;;;5108395;28;19931;-66
2021/07/16 07:47:37;;;;;;;;;;;22.10;68.00;;;;;;5108270;28;19928;-66
2021/07/16 07:50:05;;;;;;;;;;;22.10;67.50;;;;;;5093188;28;19928;-65
2021/07/16 07:52:31;;;;;;;;;;;22.10;67.20;;;;;;5112569;28;19934;-66
2021/07/16 07:54:57;;;;;;;;;;;21.90;67.40;;;;;;5117935;27;20007;-66
2021/07/16 07:57:24;;;;;;;;;;;21.90;68.20;;;;;;5112197;28;19928;-68
2021/07/16 07:59:50;;;;;;;;;;;21.90;68.20;;;;;;5112832;28;19928;-69
2021/07/16 08:02:16;;;;;;;;;;;21.90;68.00;;;;;;5094226;28;20048;-68
2021/07/16 08:04:42;;;;;;;;;;;22.00;67.50;;;;;;5112757;28;19978;-69
2021/07/16 08:07:08;;;;;;;;;;;22.30;66.90;;;;;;5123141;27;20039;-68
2021/07/16 08:09:35;;;;;;;;;;;22.50;65.90;;;;;;5125331;27;19975;-69
2021/07/16 08:12:02;;;;;;;;;;;22.60;64.30;;;;;;5120270;27;20467;-69
2021/07/16 08:14:28;;;;;;;;;;;22.70;63.50;;;;;;5112327;28;20038;-69
2021/07/16 08:16:54;;;;;;;;;;;22.60;62.50;;;;;;5111710;28;19928;-68
2021/07/16 08:19:21;;;;;;;;;;;22.60;60.80;;;;;;5122156;27;19971;-69
2021/07/16 08:21:48;;;;;;;;;;;22.70;61.70;;;;;;5127603;27;19952;-67
2021/07/16 08:24:14;;;;;;;;;;;22.80;61.40;;;;;;5126339;27;20072;-66
2021/07/16 08:26:41;;;;;;;;;;;22.90;60.00;;;;;;5128691;27;19975;-67
2021/07/16 08:29:07;;;;;;;;;;;22.90;59.40;;;;;;5131221;27;19956;-67
2021/07/16 08:31:34;;;;;;;;;;;22.80;60.30;;;;;;5130193;27;20386;-67
2021/07/16 08:34:00;;;;;;;;;;;22.70;59.50;;;;;;5125636;27;19959;-67
2021/07/16 08:36:27;;;;;;;;;;;22.60;60.10;;;;;;5120053;27;19981;-67
2021/07/16 08:38:53;;;;;;;;;;;22.40;60.70;;;;;;5110376;27;19931;-67
2021/07/16 08:41:19;;;;;;;;;;;22.30;60.40;;;;;;5113523;27;20522;-67
2021/07/16 08:43:45;;;;;;;;;;;22.20;60.60;;;;;;5127417;27;19973;-67
2021/07/16 08:46:12;;;;;;;;;;;22.30;60.60;;;;;;5121435;27;20013;-67
2021/07/16 08:48:40;;;;;;;;;;;22.50;59.40;;;;;;5115628;27;19928;-67
2021/07/16 08:51:08;;;;;;;;;;;22.60;59.20;;;;;;5111705;28;20014;-67
2021/07/16 08:53:34;;;;;;;;;;;22.70;59.50;;;;;;5111813;28;20005;-67
2021/07/16 08:56:00;;;;;;;;;;;22.70;59.30;;;;;;5111786;28;20397;-67
2021/07/16 08:58:27;;;;;;;;;;;22.60;59.20;;;;;;5118552;27;19927;-67
2021/07/16 09:00:53;;;;;;;;;;;22.60;59.10;;;;;;5125663;27;19928;-67
2021/07/16 09:03:19;;;;;;;;;;;22.60;58.30;;;;;;5111880;28;19928;-67
2021/07/16 09:05:45;;;;;;;;;;;22.70;57.90;;;;;;5111539;28;20488;-67
2021/07/16 09:08:13;;;;;;;;;;;22.70;57.10;;;;;;5111715;28;20505;-67
2021/07/16 09:10:46;;;;;;;;;;;22.70;56.80;;;;;;5111407;28;19934;-67
2021/07/16 09:13:13;;;;;;;;;;;23.00;56.90;;;;;;5111640;27;20309;-68
2021/07/16 09:15:46;;;;;;;;;;;23.50;55.90;;;;;;5111453;28;20401;-67
2021/07/16 09:18:12;;;;;;;;;;;24.00;54.40;;;;;;5111600;28;19935;-67
2021/07/16 09:20:39;;;;;;;;;;;24.60;52.10;;;;;;5111285;28;19935;-67
2021/07/16 09:23:12;;;;;;;;;;;25.10;51.40;;;;;;5111514;27;19934;-71
2021/07/16 09:25:39;;;;;;;;;;;25.50;50.00;;;;;;5117885;27;19972;-71
2021/07/16 09:28:05;;;;;;;;;;;26.00;49.90;;;;;;5114244;27;20743;-71
2021/07/16 09:30:32;;;;;;;;;;;26.40;48.40;;;;;;5109950;28;19951;-72
2021/07/16 09:33:04;;;;;;;;;;;26.70;46.80;;;;;;5091239;28;20065;-72
2021/07/16 09:35:32;;;;;;;;;;;26.90;46.90;;;;;;5098694;28;20046;-71
2021/07/16 09:38:03;;;;;;;;;;;27.20;46.10;;;;;;5092506;28;19927;-71
2021/07/16 09:40:33;;;;;;;;;;;27.40;45.30;;;;;;5110979;28;19934;-71
2021/07/16 09:43:04;;;;;;;;;;;27.40;44.50;;;;;;5109220;27;19942;-72
2021/07/16 09:45:31;;;;;;;;;;;27.40;44.50;;;;;;5124019;27;19967;-72
2021/07/16 09:47:59;;;;;;;;;;;27.50;45.10;;;;;;5109833;28;20004;-71
2021/07/16 09:50:25;;;;;;;;;;;27.60;45.10;;;;;;5110169;28;19935;-72
2021/07/16 09:53:11;;;;;;;;;;;27.80;44.30;;;;;;5110319;27;19978;-72
2021/07/16 09:55:37;;;;;;;;;;;28.00;43.80;;;;;;5123037;27;20063;-72
2021/07/16 09:58:03;;;;;;;;;;;28.20;42.80;;;;;;5129598;27;19999;-72
2021/07/16 10:00:30;;;;;;;;;;;28.40;41.80;;;;;;5113611;27;20049;-72
2021/07/16 10:02:57;;;;;;;;;;;28.60;41.60;;;;;;5111857;27;19982;-72
2021/07/16 10:05:23;;;;;;;;;;;28.80;41.30;;;;;;5116422;27;19934;-72
2021/07/16 10:07:50;;;;;;;;;;;28.90;40.90;;;;;;5110047;28;19927;-72
2021/07/16 10:10:20;;;;;;;;;;;28.90;40.80;;;;;;5110203;28;19930;-71
2021/07/16 10:12:47;;;;;;;;;;;29.00;40.40;;;;;;5111892;27;20608;-72
2021/07/16 10:15:14;;;;;;;;;;;28.90;40.60;;;;;;5105370;27;20307;-71
2021/07/16 10:17:41;;;;;;;;;;;28.90;40.80;;;;;;5109699;28;19928;-72
2021/07/16 10:20:15;;;;;;;;;;;29.20;40.40;;;;;;5107965;28;19935;-71
2021/07/16 10:22:42;;;;;;;;;;;29.40;39.10;;;;;;5109390;28;20414;-71
2021/07/16 10:25:09;;;;;;;;;;;29.30;39.30;;;;;;5110015;27;19927;-71
2021/07/16 10:27:36;;;;;;;;;;;29.40;38.60;;;;;;5103577;27;20429;-71
2021/07/16 10:30:06;;;;;;;;;;;29.40;38.90;;;;;;5073401;28;20303;-71
2021/07/16 10:32:52;;;;;;;;;;;29.50;38.90;;;;;;5095328;28;20514;-73
2021/07/16 10:35:20;;;;;;;;;;;29.50;38.00;;;;;;5057768;28;19975;-71
2021/07/16 10:37:47;;;;;;;;;;;29.10;38.90;;;;;;5091258;28;19976;-69
2021/07/16 10:40:32;;;;;;;;;;;28.90;39.40;;;;;;5072049;28;19986;-71
2021/07/16 10:42:59;;;;;;;;;;;28.50;40.40;;;;;;5092702;28;19974;-70
2021/07/16 10:45:32;;;;;;;;;;;27.90;41.30;;;;;;5089069;28;19928;-72
2021/07/16 10:48:18;;;;;;;;;;;27.60;42.10;;;;;;5092300;28;19924;-69
2021/07/16 10:50:45;;;;;;;;;;;27.30;42.30;;;;;;5088759;28;20077;-70
2021/07/16 10:53:16;;;;;;;;;;;27.10;43.20;;;;;;5093669;28;19928;-70
2021/07/16 10:55:42;;;;;;;;;;;27.00;43.60;;;;;;5102247;28;19928;-71
2021/07/16 10:58:18;;;;;;;;;;;26.80;43.90;;;;;;5088287;28;20453;-71
2021/07/16 11:00:44;;;;;;;;;;;26.70;43.60;;;;;;5074062;28;19928;-71
2021/07/16 11:03:11;;;;;;;;;;;26.60;43.40;;;;;;5101902;28;19928;-71
2021/07/16 11:05:42;;;;;;;;;;;26.40;43.30;;;;;;5106144;28;19932;-70
2021/07/16 11:08:26;;;;;;;;;;;26.20;43.30;;;;;;5097468;28;19932;-70
2021/07/16 11:10:56;;;;;;;;;;;26.10;44.90;;;;;;5096949;28;19927;-70
2021/07/16 11:13:35;;;;;;;;;;;26.00;43.50;;;;;;5100599;28;20336;-70
2021/07/16 11:16:38;;;;;;;;;;;25.90;44.10;;;;;;5090942;28;19932;-71
2021/07/16 11:19:09;;;;;;;;;;;25.90;45.40;;;;;;5088348;28;19928;-70
2021/07/16 11:21:49;;;;;;;;;;;25.90;45.80;;;;;;5093309;28;19960;-70
2021/07/16 11:24:16;;;;;;;;;;;25.90;45.00;;;;;;5093393;28;20019;-70
2021/07/16 11:26:56;;;;;;;;;;;25.80;44.00;;;;;;5089813;28;20371;-70
2021/07/16 11:29:23;;;;;;;;;;;25.70;45.40;;;;;;5117630;28;20014;-72
2021/07/16 11:32:08;;;;;;;;;;;25.70;45.20;;;;;;5118512;28;19928;-70
2021/07/16 11:34:35;;;;;;;;;;;25.60;45.40;;;;;;5121125;28;20263;-70
2021/07/16 11:37:01;;;;;;;;;;;25.60;46.60;;;;;;5122371;28;20014;-70
2021/07/16 11:39:34;;;;;;;;;;;25.70;47.20;;;;;;5123789;28;20010;-70
2021/07/16 11:42:02;;;;;;;;;;;25.60;46.90;;;;;;5121626;28;19993;-70
2021/07/16 11:44:29;;;;;;;;;;;25.60;45.80;;;;;;5126621;28;19973;-70
2021/07/16 11:46:56;;;;;;;;;;;25.70;46.00;;;;;;5116837;28;20399;-70
2021/07/16 11:49:23;;;;;;;;;;;25.60;44.60;;;;;;5108415;28;19931;-71
2021/07/16 11:51:56;;;;;;;;;;;25.60;46.00;;;;;;5112859;28;20026;-70
2021/07/16 11:54:26;;;;;;;;;;;25.60;45.40;;;;;;5108167;28;19969;-69
2021/07/16 11:56:59;;;;;;;;;;;25.70;46.30;;;;;;5104823;28;20022;-66
2021/07/16 11:59:26;;;;;;;;;;;25.70;46.70;;;;;;5109027;28;19931;-68
2021/07/16 12:02:09;;;;;;;;;;;25.70;47.50;;;;;;5108909;28;20026;-67
2021/07/16 12:04:39;;;;;;;;;;;25.80;44.60;;;;;;5113924;28;20294;-67
2021/07/16 12:07:06;;;;;;;;;;;25.80;45.10;;;;;;5102486;28;19975;-67
2021/07/16 12:09:36;;;;;;;;;;;25.70;46.60;;;;;;5108388;28;20331;-67
2021/07/16 12:12:04;;;;;;;;;;;25.60;47.40;;;;;;5101529;28;19931;-68
2021/07/16 12:14:43;;;;;;;;;;;25.70;46.30;;;;;;5105501;28;20011;-67
2021/07/16 12:17:09;;;;;;;;;;;25.60;45.10;;;;;;5117935;28;20046;-67
2021/07/16 12:19:35;;;;;;;;;;;25.60;46.80;;;;;;5111218;28;19952;-67
2021/07/16 12:22:02;;;;;;;;;;;25.50;47.10;;;;;;5121400;28;19939;-67
2021/07/16 12:24:28;;;;;;;;;;;25.50;46.60;;;;;;5110416;28;19932;-67
2021/07/16 12:27:04;;;;;;;;;;;25.50;46.90;;;;;;5101198;28;19977;-67
2021/07/16 12:29:30;;;;;;;;;;;25.60;47.10;;;;;;5092481;28;20019;-67
2021/07/16 12:31:57;;;;;;;;;;;25.60;47.50;;;;;;5089430;28;19927;-67
2021/07/16 12:34:25;;;;;;;;;;;25.50;47.80;;;;;;5097420;28;20435;-67
2021/07/16 12:37:05;;;;;;;;;;;25.40;47.20;;;;;;5099462;28;19974;-67
2021/07/16 12:39:31;;;;;;;;;;;25.30;47.80;;;;;;5094475;28;19932;-67
2021/07/16 12:42:15;;;;;;;;;;;25.20;49.10;;;;;;5097113;28;19977;-67
2021/07/16 12:45:01;;;;;;;;;;;25.20;48.80;;;;;;5099484;28;20027;-67
2021/07/16 12:47:27;;;;;;;;;;;25.10;49.40;;;;;;5074612;28;19935;-66
2021/07/16 12:50:06;;;;;;;;;;;25.20;48.30;;;;;;5103419;28;19987;-66
2021/07/16 12:52:33;;;;;;;;;;;25.10;48.60;;;;;;5096404;28;20434;-66
2021/07/16 12:55:12;;;;;;;;;;;25.10;49.60;;;;;;5098531;28;19928;-66
2021/07/16 12:57:38;;;;;;;;;;;25.10;49.20;;;;;;5091387;28;20386;-66
2021/07/16 13:00:20;;;;;;;;;;;25.20;49.00;;;;;;5074078;28;19943;-66
2021/07/16 13:02:47;;;;;;;;;;;25.20;48.30;;;;;;5093908;28;20053;-66
2021/07/16 13:05:30;;;;;;;;;;;25.20;49.10;;;;;;5105748;28;19928;-67
2021/07/16 13:08:34;;;;;;;;;;;25.30;49.10;;;;;;5097521;28;20422;-66
2021/07/16 13:11:02;;;;;;;;;;;25.30;48.30;;;;;;4990751;28;20056;-66
2021/07/16 13:13:30;;;;;;;;;;;25.40;49.80;;;;;;5004071;28;20365;-67
2021/07/16 13:16:05;;;;;;;;;;;25.40;48.80;;;;;;4990787;28;20794;-66
2021/07/16 13:18:32;;;;;;;;;;;25.40;48.90;;;;;;4994671;28;19976;-66
2021/07/16 13:20:58;;;;;;;;;;;25.40;48.70;;;;;;4999900;28;19929;-66
2021/07/16 13:23:24;;;;;;;;;;;25.50;48.60;;;;;;4993342;28;20072;-66
2021/07/16 13:25:56;;;;;;;;;;;25.50;48.50;;;;;;4989400;28;19973;-66
2021/07/16 13:28:23;;;;;;;;;;;25.50;48.50;;;;;;5016856;28;19937;-66
2021/07/16 13:30:49;;;;;;;;;;;25.60;49.20;;;;;;5017898;28;19929;-66
2021/07/16 13:33:16;;;;;;;;;;;25.60;48.70;;;;;;5007642;28;20016;-66
2021/07/16 13:35:42;;;;;;;;;;;25.50;48.00;;;;;;5015707;28;19972;-66
2021/07/16 13:38:08;;;;;;;;;;;25.50;48.90;;;;;;5011344;28;19926;-66
2021/07/16 13:40:34;;;;;;;;;;;25.50;47.80;;;;;;5019984;28;19929;-66
2021/07/16 13:43:00;;;;;;;;;;;25.50;49.50;;;;;;5117047;27;20013;-66
2021/07/16 13:45:26;;;;;;;;;;;25.50;48.80;;;;;;5112575;27;20317;-66
2021/07/16 13:47:52;;;;;;;;;;;25.50;47.10;;;;;;5115619;27;19932;-66
2021/07/16 13:50:19;;;;;;;;;;;25.40;46.40;;;;;;5117438;27;20052;-66
2021/07/16 13:52:45;;;;;;;;;;;25.30;48.00;;;;;;5106595;28;20010;-66
2021/07/16 13:55:11;;;;;;;;;;;25.30;48.20;;;;;;5119925;27;20013;-66
2021/07/16 13:57:37;;;;;;;;;;;25.30;49.50;;;;;;5107591;27;20399;-67
2021/07/16 14:00:06;;;;;;;;;;;25.20;49.90;;;;;;5118495;27;19928;-66
2021/07/16 14:02:33;;;;;;;;;;;25.20;49.60;;;;;;5119272;27;19980;-66
2021/07/16 14:05:00;;;;;;;;;;;25.20;50.30;;;;;;5113122;27;19929;-67
2021/07/16 14:07:26;;;;;;;;;;;25.30;49.40;;;;;;5103570;28;20382;-66
2021/07/16 14:09:53;;;;;;;;;;;25.30;49.40;;;;;;5110166;28;20020;-66
2021/07/16 14:12:19;;;;;;;;;;;25.30;49.90;;;;;;5104565;28;19980;-66
2021/07/16 14:14:48;;;;;;;;;;;25.20;49.70;;;;;;5110749;27;20409;-66
2021/07/16 14:17:15;;;;;;;;;;;25.20;50.40;;;;;;5122968;27;19928;-66
2021/07/16 14:19:41;;;;;;;;;;;25.20;48.70;;;;;;5119858;27;20053;-66